KMGE

Dobbins Air Reserve Base Airport

Marietta, Georgia, USA
METAR KMGE 220356Z 10006KT 10SM BKN250 M01/M08 A3041 RMK AO2A SLP310 T10101078 $
Observed Flight Rules
Jan-22 @ 03:56 UTC (20 minutes ago) Visual Flight Rules
Wind Visibility Clouds
100° at 6 knots 10 miles
  • Broken at 25,000' AGL
Temperatures Readings
Current -1°C / 30°F
Dewpoint -8°C / 18°F
Humidity 59%
Altimeter 30.41" Hg
Pressure 1031 hPa
Elevation 326
METAR KMGE 220356Z 10006KT 10SM BKN250 M01/M08 A3041 RMK AO2A SLP310 T10101078 $
Observed Flight Rules
Jan-22 @ 03:56 UTC
(20 minutes ago)
VFR
Wind Visibility
100° at 6 knots 10 miles
Clouds
  • Broken at 25,000' AGL
Temperature Dewpoint
-1°C / 30°F -8°C / 18°F
Humidity Altimeter Pressure
59% 30.41" Hg 1031 hPa